createdAt,value
2019-03-08T00:01:59.880Z,80.47
2019-03-08T00:04:26.678Z,81.06
2019-03-08T00:06:53.620Z,80.35
2019-03-08T00:09:20.415Z,81.41
2019-03-08T00:11:47.155Z,80.66
2019-03-08T00:14:13.893Z,79.84
2019-03-08T00:16:40.591Z,80.00
2019-03-08T00:19:07.196Z,80.06
2019-03-08T00:21:34.016Z,78.44
2019-03-08T00:24:00.824Z,77.45
2019-03-08T00:26:28.037Z,77.24
2019-03-08T00:28:55.246Z,76.73
2019-03-08T00:31:21.987Z,74.95
2019-03-08T00:33:48.997Z,74.84
2019-03-08T00:36:15.740Z,75.32
2019-03-08T00:38:42.446Z,75.25
2019-03-08T00:41:09.166Z,74.82
2019-03-08T00:43:35.891Z,75.15
2019-03-08T00:46:02.606Z,74.01
2019-03-08T00:48:29.207Z,74.93
2019-03-08T00:50:55.851Z,76.30
2019-03-08T00:53:22.544Z,75.53
2019-03-08T00:55:49.376Z,76.67
2019-03-08T00:58:16.102Z,76.55
2019-03-08T01:00:42.817Z,78.61
2019-03-08T01:03:09.444Z,79.35
2019-03-08T01:05:36.080Z,80.07
2019-03-08T01:08:02.997Z,81.71
2019-03-08T01:10:29.718Z,81.96
2019-03-08T01:12:56.662Z,82.61
2019-03-08T01:15:23.389Z,83.59
2019-03-08T01:17:50.212Z,83.92
2019-03-08T01:20:17.259Z,84.81
2019-03-08T01:22:43.987Z,85.23
2019-03-08T01:25:11.117Z,84.87
2019-03-08T01:28:14.849Z,84.98
2019-03-08T01:30:42.248Z,85.38
2019-03-08T01:33:09.801Z,85.54
2019-03-08T01:35:36.638Z,85.42
2019-03-08T01:38:03.968Z,85.40
2019-03-08T01:40:30.793Z,85.39
2019-03-08T01:42:57.533Z,86.00
2019-03-08T01:45:24.274Z,85.91
2019-03-08T01:47:51.330Z,86.73
2019-03-08T01:50:18.134Z,86.72
2019-03-08T01:52:45.288Z,87.43
2019-03-08T01:55:12.260Z,87.70
2019-03-08T01:57:39.075Z,87.46
2019-03-08T02:00:08.305Z,87.77
2019-03-08T02:02:35.052Z,87.57
2019-03-08T02:05:01.849Z,87.73
2019-03-08T02:07:28.665Z,87.20
2019-03-08T02:09:55.325Z,86.25
2019-03-08T02:12:21.927Z,86.35
2019-03-08T02:14:48.632Z,85.20
2019-03-08T02:17:15.298Z,86.23
2019-03-08T02:19:41.993Z,85.07
2019-03-08T02:22:08.608Z,85.53
2019-03-08T02:24:35.324Z,86.08
2019-03-08T02:27:01.929Z,86.37
2019-03-08T02:29:28.537Z,86.25
2019-03-08T02:31:55.171Z,86.77
2019-03-08T02:34:21.786Z,86.96
2019-03-08T02:36:48.606Z,86.81
2019-03-08T02:39:15.347Z,87.38
2019-03-08T02:41:42.255Z,87.61
2019-03-08T02:44:08.859Z,87.61
2019-03-08T02:46:35.504Z,87.20
2019-03-08T02:49:02.196Z,87.89
2019-03-08T02:51:28.934Z,87.29
2019-03-08T02:53:55.556Z,88.05
2019-03-08T02:56:22.172Z,88.15
2019-03-08T02:58:48.885Z,87.27
2019-03-08T03:01:15.740Z,88.21
2019-03-08T03:03:42.356Z,87.97
2019-03-08T03:06:09.108Z,88.42
2019-03-08T03:08:35.822Z,87.93
2019-03-08T03:11:02.520Z,88.23
2019-03-08T03:13:29.128Z,88.04
2019-03-08T03:15:55.750Z,88.07
2019-03-08T03:18:22.455Z,87.76
2019-03-08T03:20:49.056Z,86.87
2019-03-08T03:23:15.677Z,87.24
2019-03-08T03:25:42.512Z,87.16
2019-03-08T03:28:09.235Z,86.86
2019-03-08T03:30:35.959Z,87.45
2019-03-08T03:33:02.837Z,86.43
2019-03-08T03:35:29.926Z,86.61
2019-03-08T03:37:56.555Z,85.65
2019-03-08T03:40:23.150Z,86.04
2019-03-08T03:42:49.777Z,86.17
2019-03-08T03:45:17.651Z,86.40
2019-03-08T03:47:44.277Z,85.90
2019-03-08T03:50:11.114Z,86.01
2019-03-08T03:52:38.247Z,84.58
2019-03-08T03:55:05.325Z,84.54
2019-03-08T03:57:32.048Z,83.54
2019-03-08T03:59:58.671Z,83.98
2019-03-08T04:02:25.278Z,83.50
2019-03-08T04:04:51.883Z,83.41
2019-03-08T04:07:18.535Z,83.63
2019-03-08T04:09:45.338Z,83.07
2019-03-08T04:12:12.101Z,83.15
2019-03-08T04:14:38.808Z,83.71
2019-03-08T04:17:05.430Z,83.42
2019-03-08T04:19:32.126Z,83.52
2019-03-08T04:21:58.760Z,82.93
2019-03-08T04:24:25.560Z,83.13
2019-03-08T04:26:52.535Z,82.61
2019-03-08T04:29:19.358Z,82.42
2019-03-08T04:31:46.054Z,82.35
2019-03-08T04:34:12.680Z,82.06
2019-03-08T04:36:39.430Z,81.92
2019-03-08T04:39:07.703Z,81.94
2019-03-08T04:41:34.299Z,82.03
2019-03-08T04:44:01.332Z,81.94
2019-03-08T04:46:27.947Z,82.49
2019-03-08T04:48:54.873Z,81.71
2019-03-08T04:51:21.884Z,81.81
2019-03-08T04:53:48.480Z,81.88
2019-03-08T04:56:15.069Z,82.12
2019-03-08T04:58:41.813Z,81.37
2019-03-08T05:01:08.417Z,81.39
2019-03-08T05:03:35.037Z,81.09
2019-03-08T05:06:01.676Z,81.43
2019-03-08T05:08:28.281Z,81.35
2019-03-08T05:10:54.886Z,81.07
2019-03-08T05:13:21.834Z,81.36
2019-03-08T05:15:48.442Z,81.20
2019-03-08T05:18:15.151Z,81.25
2019-03-08T05:20:41.779Z,80.58
2019-03-08T05:23:08.393Z,81.01
2019-03-08T05:25:35.087Z,80.70
2019-03-08T05:28:01.716Z,80.73
2019-03-08T05:30:28.323Z,80.75
2019-03-08T05:32:54.947Z,80.75
2019-03-08T05:35:21.559Z,81.02
2019-03-08T05:37:48.680Z,81.08
2019-03-08T05:40:15.545Z,81.50
2019-03-08T05:42:42.391Z,81.19
2019-03-08T05:45:10.543Z,80.98
2019-03-08T05:47:37.348Z,80.85
2019-03-08T05:50:04.110Z,81.03
2019-03-08T05:52:30.738Z,80.91
2019-03-08T05:54:57.629Z,81.14
2019-03-08T05:57:24.428Z,80.98
2019-03-08T05:59:51.026Z,81.49
2019-03-08T06:02:17.717Z,82.44
2019-03-08T06:04:44.469Z,82.82
2019-03-08T06:07:11.136Z,82.36
2019-03-08T06:09:37.778Z,82.91
2019-03-08T06:12:04.514Z,82.04
2019-03-08T06:14:31.228Z,82.28
2019-03-08T06:16:57.955Z,82.55
2019-03-08T06:19:24.583Z,82.24
2019-03-08T06:21:51.220Z,81.49
2019-03-08T06:24:18.134Z,81.35
2019-03-08T06:26:44.868Z,81.32
2019-03-08T06:29:11.660Z,81.47
2019-03-08T06:31:38.588Z,81.11
2019-03-08T06:34:05.256Z,80.41
2019-03-08T06:36:31.927Z,80.24
2019-03-08T06:38:58.561Z,80.62
2019-03-08T06:41:25.261Z,79.78
2019-03-08T06:43:52.020Z,79.52
2019-03-08T06:46:18.619Z,79.64
2019-03-08T06:48:45.254Z,79.44
2019-03-08T06:51:11.974Z,79.11
2019-03-08T06:53:38.592Z,79.34
2019-03-08T06:56:05.210Z,79.98
2019-03-08T06:58:37.812Z,79.06
2019-03-08T07:01:06.089Z,79.44
2019-03-08T07:03:32.901Z,79.12
2019-03-08T07:05:59.487Z,79.24
2019-03-08T07:08:26.236Z,78.61
2019-03-08T07:10:53.116Z,78.87
2019-03-08T07:13:19.808Z,79.17
2019-03-08T07:15:46.455Z,78.41
2019-03-08T07:18:13.268Z,78.85
2019-03-08T07:21:02.368Z,78.93
2019-03-08T07:23:47.138Z,78.35
2019-03-08T07:26:23.357Z,78.82
2019-03-08T07:29:18.808Z,78.11
2019-03-08T07:31:58.013Z,77.58
2019-03-08T07:34:37.340Z,77.43
2019-03-08T07:37:41.501Z,77.20
2019-03-08T07:40:22.541Z,77.26
2019-03-08T07:42:55.480Z,75.36
2019-03-08T07:45:36.295Z,76.19
2019-03-08T07:48:31.788Z,76.42
2019-03-08T07:51:09.111Z,75.43
2019-03-08T07:53:51.393Z,76.03
2019-03-08T07:56:26.809Z,75.30
2019-03-08T07:59:15.875Z,75.65
2019-03-08T08:02:02.177Z,75.47
2019-03-08T08:04:48.439Z,74.72
2019-03-08T08:07:28.037Z,74.14
2019-03-08T08:10:00.960Z,72.12
2019-03-08T08:12:34.838Z,71.58
2019-03-08T08:15:06.911Z,70.36
2019-03-08T08:17:48.200Z,70.57
2019-03-08T08:20:29.275Z,71.25
2019-03-08T08:23:07.973Z,72.28
2019-03-08T08:25:43.012Z,71.80
2019-03-08T08:28:26.432Z,72.49
2019-03-08T08:31:11.579Z,71.48
2019-03-08T08:33:49.813Z,71.25
2019-03-08T08:36:23.738Z,70.39
2019-03-08T08:39:04.898Z,69.78
2019-03-08T08:41:56.886Z,69.34
2019-03-08T08:44:43.310Z,69.50
2019-03-08T08:47:35.313Z,70.22
2019-03-08T08:50:14.206Z,70.29
2019-03-08T08:53:00.683Z,69.85
2019-03-08T08:55:43.672Z,69.30
2019-03-08T08:58:28.728Z,69.61
2019-03-08T09:01:13.657Z,68.70
2019-03-08T09:03:52.369Z,69.06
2019-03-08T09:06:36.437Z,69.10
2019-03-08T09:09:13.611Z,68.97
2019-03-08T09:11:52.325Z,68.17
2019-03-08T09:14:18.252Z,68.42
2019-03-08T09:17:03.559Z,68.52
2019-03-08T09:19:48.794Z,66.49
2019-03-08T09:22:32.650Z,65.52
2019-03-08T09:25:05.421Z,67.15
2019-03-08T09:27:51.937Z,66.13
2019-03-08T09:30:56.690Z,62.43
2019-03-08T09:33:36.710Z,60.39
2019-03-08T09:36:11.652Z,64.14
2019-03-08T09:38:50.307Z,61.31
2019-03-08T09:41:54.841Z,60.44
2019-03-08T09:44:31.061Z,61.55
2019-03-08T09:47:19.810Z,60.79
2019-03-08T09:49:55.136Z,60.98
2019-03-08T09:52:33.780Z,64.10
2019-03-08T09:55:21.196Z,63.85
2019-03-08T09:57:55.245Z,64.50
2019-03-08T10:00:40.744Z,63.95
2019-03-08T10:03:25.773Z,64.95
2019-03-08T10:06:24.572Z,65.59
2019-03-08T10:09:06.550Z,69.77
2019-03-08T10:12:01.956Z,75.38
2019-03-08T10:14:40.268Z,75.91
2019-03-08T10:17:26.558Z,77.22
2019-03-08T10:20:28.011Z,78.74
2019-03-08T10:23:19.688Z,78.68
2019-03-08T10:26:00.180Z,78.06
2019-03-08T10:28:50.908Z,77.53
2019-03-08T10:31:28.504Z,76.42
2019-03-08T10:34:15.440Z,74.50
2019-03-08T10:37:10.342Z,69.89
2019-03-08T10:39:45.246Z,63.07
2019-03-08T10:42:30.180Z,67.58
2019-03-08T10:45:16.459Z,70.18
2019-03-08T10:48:02.836Z,69.76
2019-03-08T10:50:54.697Z,68.58
2019-03-08T10:53:42.587Z,65.33
2019-03-08T10:56:34.757Z,69.01
2019-03-08T10:59:13.014Z,69.26
2019-03-08T11:01:53.640Z,69.68
2019-03-08T11:04:27.528Z,69.89
2019-03-08T11:07:17.592Z,66.84
2019-03-08T11:10:12.523Z,64.10
2019-03-08T11:12:53.670Z,64.08
2019-03-08T11:15:38.674Z,58.36
2019-03-08T11:18:17.678Z,55.18
2019-03-08T11:21:02.891Z,56.17
2019-03-08T11:23:40.834Z,55.54
2019-03-08T11:26:26.645Z,55.32
2019-03-08T11:29:04.666Z,57.97
2019-03-08T11:32:03.347Z,56.16
2019-03-08T11:34:40.303Z,57.03
2019-03-08T11:37:15.033Z,56.03
2019-03-08T11:39:53.685Z,54.68
2019-03-08T11:42:30.078Z,56.39
2019-03-08T11:45:04.446Z,57.43
2019-03-08T11:47:50.341Z,59.09
2019-03-08T11:50:35.601Z,57.47
2019-03-08T11:53:20.557Z,58.28
2019-03-08T11:55:55.259Z,59.16
2019-03-08T11:58:44.482Z,59.26
2019-03-08T12:01:20.300Z,60.51
2019-03-08T12:04:05.380Z,59.94
2019-03-08T12:07:10.492Z,60.43
2019-03-08T12:09:42.479Z,59.70
2019-03-08T12:12:28.882Z,61.17
2019-03-08T12:15:21.062Z,60.58
2019-03-08T12:17:58.217Z,61.32
2019-03-08T12:20:33.326Z,63.13
2019-03-08T12:23:12.474Z,63.42
2019-03-08T12:26:08.234Z,64.94
2019-03-08T12:29:00.364Z,67.27
2019-03-08T12:31:38.520Z,66.99
2019-03-08T12:34:23.443Z,64.89
2019-03-08T12:37:24.937Z,63.57
2019-03-08T12:40:18.132Z,64.83
2019-03-08T12:43:08.065Z,63.38
2019-03-08T12:45:43.637Z,62.55
2019-03-08T12:48:39.103Z,59.19
2019-03-08T12:51:28.619Z,51.00
2019-03-08T12:54:13.245Z,50.64
2019-03-08T12:56:58.769Z,54.10
2019-03-08T12:59:43.723Z,57.46
2019-03-08T13:02:24.723Z,55.86
2019-03-08T13:05:04.190Z,57.31
2019-03-08T13:07:56.284Z,59.55
2019-03-08T13:10:23.178Z,59.27
2019-03-08T13:12:49.829Z,60.12
2019-03-08T13:15:16.619Z,61.08
2019-03-08T13:17:43.244Z,58.58
2019-03-08T13:20:13.157Z,56.98
2019-03-08T13:22:39.913Z,58.38
2019-03-08T13:25:06.764Z,58.39
2019-03-08T13:27:33.609Z,60.06
2019-03-08T13:30:00.356Z,61.10
2019-03-08T13:32:27.020Z,61.80
2019-03-08T13:34:53.659Z,62.43
2019-03-08T13:37:20.303Z,61.37
2019-03-08T13:39:46.924Z,62.88
2019-03-08T13:42:13.868Z,62.11
2019-03-08T13:44:40.483Z,59.04
2019-03-08T13:47:07.318Z,48.79
2019-03-08T13:49:34.056Z,46.72
2019-03-08T13:52:00.770Z,45.50
2019-03-08T13:54:27.388Z,47.79
2019-03-08T13:56:54.401Z,42.60
2019-03-08T13:59:21.003Z,46.07
2019-03-08T14:01:47.663Z,46.24
2019-03-08T14:04:14.567Z,45.80
2019-03-08T14:06:41.278Z,46.27
2019-03-08T14:09:08.108Z,47.00
2019-03-08T14:11:34.832Z,48.01
2019-03-08T14:14:01.559Z,47.55
2019-03-08T14:16:28.215Z,48.10
2019-03-08T14:18:54.838Z,48.29
2019-03-08T14:21:21.669Z,48.16
2019-03-08T14:23:48.368Z,49.52
2019-03-08T14:26:14.975Z,48.89
2019-03-08T14:28:41.599Z,48.39
2019-03-08T14:31:16.505Z,50.10
2019-03-08T14:33:43.141Z,48.87
2019-03-08T14:36:10.065Z,49.95
2019-03-08T14:38:37.346Z,49.26
2019-03-08T14:41:36.458Z,47.99
2019-03-08T14:44:26.358Z,46.45
2019-03-08T14:47:07.793Z,47.39
2019-03-08T14:49:34.442Z,48.25
2019-03-08T14:52:01.163Z,48.68
2019-03-08T14:54:27.779Z,49.64
2019-03-08T14:56:54.393Z,50.80
2019-03-08T14:59:21.134Z,51.57
2019-03-08T15:01:47.732Z,50.84
2019-03-08T15:04:14.340Z,51.25
2019-03-08T15:06:41.157Z,48.88
2019-03-08T15:09:10.891Z,47.93
2019-03-08T15:11:37.482Z,50.11
2019-03-08T15:14:04.268Z,49.64
2019-03-08T15:16:30.890Z,47.96
2019-03-08T15:18:57.501Z,46.20
2019-03-08T15:21:24.206Z,47.92
2019-03-08T15:23:54.150Z,49.17
2019-03-08T15:26:19.373Z,51.08
2019-03-08T15:28:46.092Z,51.67
2019-03-08T15:31:12.928Z,52.15
2019-03-08T15:33:39.619Z,53.37
2019-03-08T15:36:06.327Z,52.29
2019-03-08T15:38:32.903Z,53.48
2019-03-08T15:40:59.635Z,54.80
2019-03-08T15:43:26.255Z,54.78
2019-03-08T15:45:53.006Z,55.55
2019-03-08T15:48:19.717Z,55.08
2019-03-08T15:50:47.842Z,54.88
2019-03-08T15:53:14.771Z,55.56
2019-03-08T15:55:41.679Z,54.96
2019-03-08T15:58:08.441Z,54.85
2019-03-08T16:00:35.242Z,54.43
2019-03-08T16:03:01.936Z,55.12
2019-03-08T16:05:30.092Z,53.43
2019-03-08T16:07:57.693Z,53.50
2019-03-08T16:10:25.621Z,53.76
2019-03-08T16:12:52.434Z,53.25
2019-03-08T16:15:19.277Z,53.89
2019-03-08T16:17:46.075Z,53.15
2019-03-08T16:20:13.531Z,53.41
2019-03-08T16:22:40.340Z,53.15
2019-03-08T16:25:08.353Z,53.08
2019-03-08T16:27:35.201Z,53.24
2019-03-08T16:30:02.970Z,52.54
2019-03-08T16:32:37.080Z,52.17
2019-03-08T16:35:04.615Z,52.67
2019-03-08T16:37:40.580Z,52.76
2019-03-08T16:40:29.762Z,53.01
2019-03-08T16:43:18.796Z,52.78
2019-03-08T16:46:05.127Z,52.77
2019-03-08T16:48:40.365Z,53.26
2019-03-08T16:51:30.329Z,53.27
2019-03-08T16:54:07.651Z,53.81
2019-03-08T16:56:44.633Z,53.48
2019-03-08T16:59:32.979Z,53.90
2019-03-08T17:02:28.315Z,53.68
2019-03-08T17:05:17.252Z,54.42
2019-03-08T17:07:59.139Z,54.87
2019-03-08T17:10:43.195Z,54.80
2019-03-08T17:13:21.333Z,53.96
2019-03-08T17:16:25.812Z,53.83
2019-03-08T17:19:12.100Z,54.67
2019-03-08T17:21:58.686Z,54.04
2019-03-08T17:24:40.714Z,55.28
2019-03-08T17:27:15.863Z,55.09
2019-03-08T17:29:50.796Z,54.58
2019-03-08T17:32:34.226Z,54.85
2019-03-08T17:35:27.887Z,55.14
2019-03-08T17:38:08.867Z,55.29
2019-03-08T17:40:43.427Z,55.50
2019-03-08T17:43:25.485Z,55.39
2019-03-08T17:46:14.921Z,55.80
2019-03-08T17:48:59.376Z,55.79
2019-03-08T17:51:45.476Z,55.67
2019-03-08T17:54:19.004Z,56.23
2019-03-08T17:56:56.536Z,56.63
2019-03-08T17:59:41.422Z,57.04
2019-03-08T18:02:15.169Z,56.91
2019-03-08T18:04:54.034Z,56.79
2019-03-08T18:07:33.434Z,56.83
2019-03-08T18:10:10.338Z,57.09
2019-03-08T18:12:54.999Z,57.07
2019-03-08T18:15:29.089Z,57.01
2019-03-08T18:18:03.868Z,56.94
2019-03-08T18:20:55.933Z,57.05
2019-03-08T18:23:38.544Z,57.13
2019-03-08T18:26:19.248Z,56.77
2019-03-08T18:28:59.882Z,57.14
2019-03-08T18:31:44.627Z,57.16
2019-03-08T18:34:33.776Z,57.12
2019-03-08T18:37:20.043Z,57.16
2019-03-08T18:39:54.379Z,57.25
2019-03-08T18:42:35.112Z,57.54
2019-03-08T18:45:18.164Z,57.82
2019-03-08T18:48:03.233Z,58.06
2019-03-08T18:50:45.500Z,58.70
2019-03-08T18:53:37.916Z,58.92
2019-03-08T18:56:16.996Z,59.49
2019-03-08T18:59:18.364Z,60.08
2019-03-08T19:02:07.664Z,60.98
2019-03-08T19:04:52.379Z,63.35
2019-03-08T19:07:38.663Z,65.14
2019-03-08T19:10:43.584Z,65.23
2019-03-08T19:13:32.590Z,65.35
2019-03-08T19:16:17.737Z,66.30
2019-03-08T19:18:51.543Z,65.87
2019-03-08T19:21:44.037Z,66.10
2019-03-08T19:24:28.988Z,66.19
2019-03-08T19:27:22.521Z,66.49
2019-03-08T19:30:07.461Z,66.64
2019-03-08T19:32:41.183Z,66.91
2019-03-08T19:35:25.112Z,67.43
2019-03-08T19:38:26.745Z,67.31
2019-03-08T19:40:59.776Z,67.84
2019-03-08T19:43:38.996Z,68.08
2019-03-08T19:46:43.480Z,68.06
2019-03-08T19:49:35.698Z,68.21
2019-03-08T19:52:11.729Z,68.57
2019-03-08T19:54:58.222Z,68.51
2019-03-08T19:57:47.248Z,68.85
2019-03-08T20:00:32.763Z,69.06
2019-03-08T20:03:09.544Z,69.17
2019-03-08T20:05:58.407Z,69.25
2019-03-08T20:08:41.730Z,69.49
2019-03-08T20:11:17.481Z,69.56
2019-03-08T20:13:57.681Z,69.60
2019-03-08T20:16:44.052Z,69.68
2019-03-08T20:19:17.235Z,69.58
2019-03-08T20:22:08.250Z,69.53
2019-03-08T20:24:44.393Z,69.54
2019-03-08T20:27:22.461Z,69.74
2019-03-08T20:30:04.219Z,69.54
2019-03-08T20:32:49.279Z,69.35
2019-03-08T20:35:41.899Z,69.67
2019-03-08T20:38:21.892Z,69.32
2019-03-08T20:40:57.309Z,69.08
2019-03-08T20:43:44.735Z,68.92
2019-03-08T20:46:22.429Z,68.93
2019-03-08T20:48:49.084Z,69.13
2019-03-08T20:51:15.762Z,69.17
2019-03-08T20:53:42.487Z,69.02
2019-03-08T20:56:09.524Z,69.15
2019-03-08T20:58:36.206Z,69.15
2019-03-08T21:01:03.221Z,68.98
2019-03-08T21:03:30.062Z,69.09
2019-03-08T21:05:56.903Z,69.09
2019-03-08T21:08:23.628Z,69.13
2019-03-08T21:10:50.441Z,69.17
2019-03-08T21:13:17.102Z,69.17
2019-03-08T21:15:43.857Z,69.25
2019-03-08T21:18:10.486Z,69.44
2019-03-08T21:20:37.112Z,69.39
2019-03-08T21:23:03.989Z,69.38
2019-03-08T21:25:30.619Z,69.52
2019-03-08T21:27:57.385Z,69.40
2019-03-08T21:30:24.265Z,69.46
2019-03-08T21:32:50.986Z,69.41
2019-03-08T21:35:21.923Z,69.22
2019-03-08T21:37:49.106Z,69.32
2019-03-08T21:40:16.254Z,68.96
2019-03-08T21:42:43.071Z,68.92
2019-03-08T21:45:11.107Z,68.80
2019-03-08T21:47:41.068Z,68.75
2019-03-08T21:50:10.531Z,68.21
2019-03-08T21:52:37.596Z,68.29
2019-03-08T21:55:05.760Z,68.03
2019-03-08T21:57:32.685Z,67.66
2019-03-08T21:59:59.640Z,67.75
2019-03-08T22:02:26.608Z,67.61
2019-03-08T22:04:58.898Z,67.65
2019-03-08T22:07:26.346Z,67.80
2019-03-08T22:10:17.152Z,67.82
2019-03-08T22:12:44.541Z,67.93
2019-03-08T22:15:11.490Z,67.46
2019-03-08T22:17:38.393Z,67.79
2019-03-08T22:20:08.038Z,68.03
2019-03-08T22:22:35.022Z,68.04
2019-03-08T22:25:02.972Z,67.95
2019-03-08T22:27:30.234Z,67.64
2019-03-08T22:29:57.969Z,67.72
2019-03-08T22:32:25.122Z,67.42
2019-03-08T22:34:52.064Z,67.27
2019-03-08T22:37:19.460Z,67.35
2019-03-08T22:39:47.588Z,67.25
2019-03-08T22:42:15.001Z,66.86
2019-03-08T22:44:41.862Z,66.74
2019-03-08T22:47:08.469Z,66.54
2019-03-08T22:49:35.845Z,66.32
2019-03-08T22:52:03.276Z,66.57
2019-03-08T22:54:31.771Z,67.54
2019-03-08T22:56:58.833Z,67.82
2019-03-08T22:59:25.946Z,68.38
2019-03-08T23:01:54.424Z,69.84
2019-03-08T23:04:21.258Z,69.36
2019-03-08T23:06:48.665Z,69.77
2019-03-08T23:09:15.732Z,70.30
2019-03-08T23:11:42.837Z,71.27
2019-03-08T23:14:09.897Z,71.39
2019-03-08T23:16:36.999Z,72.27
2019-03-08T23:19:03.836Z,72.51
2019-03-08T23:21:30.451Z,72.49
2019-03-08T23:23:57.097Z,73.41
2019-03-08T23:26:24.215Z,73.40
2019-03-08T23:29:05.550Z,73.07
2019-03-08T23:31:38.384Z,74.52
2019-03-08T23:34:05.101Z,74.42
2019-03-08T23:36:31.714Z,75.30
2019-03-08T23:38:58.862Z,75.46
2019-03-08T23:41:25.474Z,75.47
2019-03-08T23:43:52.955Z,74.93
2019-03-08T23:46:23.138Z,75.00
2019-03-08T23:48:50.211Z,74.80
2019-03-08T23:51:16.825Z,74.87
2019-03-08T23:53:43.575Z,74.00
2019-03-08T23:56:10.416Z,73.75
2019-03-08T23:58:37.021Z,72.94
